KFKN/FKN METAR and TAF weather

Enter ICAO airport designator
Station Type Date Time Source
KFKN METAR 2021/04/13 23:35 UTC NOAA

KFKN 132335Z AUTO 09004KT 10SM CLR 15/11 A3007 RMK AO2 T01510105


Station Type Date Time Source
KFKN Decoded METAR 2021/04/13 23:35 UTC NOAA

Franklin / J B Rose, VA, United States (KFKN) 36-42N 076-54W
Apr 13, 2021 - 07:35 PM EDT / 2021.04.13 2335 UTC
Wind: from the E (090 degrees) at 5 MPH (4 KT):0
Visibility: 10 mile(s):0
Sky conditions: clear
Temperature: 59.2 F (15.1 C)
Dew Point: 50.9 F (10.5 C)
Relative Humidity: 73%
Pressure (altimeter): 30.07 in. Hg (1018 hPa)
ob: KFKN 132335Z AUTO 09004KT 10SM CLR 15/11 A3007 RMK AO2 T01510105
cycle: 23

Station Type Date Time Source
KFKN TAF UTC NOAA

Error!

Example: see airport list